AirNav   Duncan Aviation - Near you to keep you flying
 
 717 users online  

F41 Ennis Municipal Airport
Ennis, Texas, USA

GOING TO ENNIS?


FAA INFORMATION EFFECTIVE 01 DECEMBER 2022

Location

FAA Identifier: F41
Lat/Long: 32-19-46.9000N 096-39-50.0000W
32-19.781667N 096-39.833333W
32.3296944,-96.6638889
(estimated)
Elevation: 500.1 ft. / 152.4 m (surveyed)
Variation: 03E (2020)
From city: 2 miles W of ENNIS, TX
Time zone: UTC -6 (UTC -5 during Daylight Saving Time)
Zip code: 75119

Airport Operations

Airport use: Open to the public
Control tower: no
ARTCC: FORT WORTH CENTER
FSS: FORT WORTH FLIGHT SERVICE STATION
NOTAMs facility: FTW (NOTAM-D service available)
Attendance: MON-FRI 0800-1700
Wind indicator: lighted
Segmented circle: yes
Lights: ACTVT REIL RWY 16 & 34; PAPI RWY 16 & 34; MIRL RWY 16/34, PRESET LOW INTST - CTAF.
Beacon: white-green (lighted land airport)
Operates sunset to sunrise.

Airport Communications

CTAF: 122.9
REGIONAL APPROACH: 125.2
REGIONAL DEPARTURE: 125.2
EESAT STAR: 125.025 125.275
FINGR STAR: 124.3 125.275
GARLAND DP: 125.2
GREGS STAR: 118.1
JFRYE STAR: 118.1
KNEAD STAR: 135.975
LOADS STAR: 125.025 125.275
SLANT STAR: 125.025 125.275
SWVAY STAR: 135.975
YEAGR STAR: 125.025 125.275
WX AWOS-3 at JWY (15 nm NW): 119.575 (972-937-4747)
WX AWOS-3PT at LNC (15 nm N): 118.975 (972-227-0471)

Nearby radio navigation aids

VOR radial/distance  VOR name  Freq  Var
CQYr285/24.2CEDAR CREEK VORTAC114.8006E
CVEr154/35.8COWBOY VOR/DME116.2006E
TTTr144/37.6MAVERICK VOR/DME113.1006E

 
NDB name  Hdg/Dist  Freq  Var  ID
MESQUITE190/29.624803EPQF .--. --.- ..-.
PYRAMID314/36.741806EPYF .--. -.-- ..-.
CROSSROADS292/39.321502ECSZ -.-. ... --..

Airport Services

Fuel available: 100LL JET-A
100LL:FUEL SELF SERVE.
Parking: tiedowns
Airframe service: MAJOR
Powerplant service: MAJOR
Bottled oxygen: NONE
Bulk oxygen: NONE

Runway Information

Runway 16/34

Dimensions: 3999 x 50 ft. / 1219 x 15 m
Surface: asphalt, in good condition
Weight bearing capacity: 
Single wheel: 18.0
Runway edge lights: medium intensity
RUNWAY 16  RUNWAY 34
Latitude: 32-20.094650N32-19.469283N
Longitude: 096-39.957317W096-39.710687W
Elevation: 500.1 ft.477.0 ft.
Traffic pattern: rightleft
Runway heading: 158 magnetic, 161 true338 magnetic, 341 true
Displaced threshold: no255 ft.
Markings: basic, in good conditionbasic, in good condition
Visual slope indicator: 2-light PAPI on left (3.00 degrees glide path)2-light PAPI on left (3.00 degrees glide path)
Runway end identifier lights: yesyes
Touchdown point: yes, no lightsyes, no lights
Obstructions: 5 ft. gnd, 201 ft. from runway, 86 ft. left of centerline
RISING GROUND 0 TO 5 FT FROM 0-199 FT DSTC, 88 FT L.
27 ft. pline, marked, 1125 ft. from runway, 34:1 slope to clear
20 FT BRUSH, 0-130 FT DSTC, ACRS APCH.

Airport Ownership and Management from official FAA records

Ownership: Publicly-owned
Owner: CITY OF ENNIS
PO BOX 220
ENNIS, TX 75120-0220
Phone 972-875-1234
Manager: JERRY HAMMOCK
3002 W ENNIS AVE
ENNIS, TX 75119
Phone (972) 875-4279

Airport Operational Statistics

Aircraft based on the field: 9
Single engine airplanes: 9
    
Aircraft operations: avg 26/day *
80% local general aviation
19% transient general aviation
1% military
* for 12-month period ending 01 October 2022

Additional Remarks

BIRDS ON AND INVOF ARPT.
FOR CD CTC REGIONAL APCH AT 972-615-2799.

Instrument Procedures

NOTE: All procedures below are presented as PDF files. If you need a reader for these files, you should download the free Adobe Reader.

NOT FOR NAVIGATION. Please procure official charts for flight.
FAA instrument procedures published for use from 01 December 2022 at 0901Z to 29 December 2022 at 0900z.

 
STARs - Standard Terminal Arrivals
FINGR SEVEN   2 pages: [1] [2] (485KB)
GREGS ONE   2 pages: [1] [2] (533KB)
HERBZ ONE (RNAV)   download (282KB)
JFRYE FIVE (RNAV)   download (252KB)
SLANT THREE (RNAV)   download (251KB)
SWVAY FOUR (RNAV)   download (234KB)
 
IAPs - Instrument Approach Procedures
VOR/DME-A   download (184KB)
 
Departure Procedures
GARLAND THREE   2 pages: [1] [2] (323KB)
KINGDOM THREE   2 pages: [1] [2] (334KB)
KUSSO ONE (RNAV)   2 pages: [1] [2] (289KB)
SWABR ONE (RNAV)   2 pages: [1] [2] (288KB)
NOTE: Special Take-Off Minimums/Departure Procedures apply   download (326KB)

Other nearby airports with instrument procedures:

KJWY - Mid-Way Regional Airport (15 nm NW)
KLNC - Lancaster Regional Airport (15 nm N)
KCRS - C David Campbell Field-Corsicana Municipal Airport (23 nm SE)
KRBD - Dallas Executive Airport (24 nm NW)
KHQZ - Mesquite Metro Airport (26 nm N)
 
Loc | Ops | Rwys | IFR | FBO | Links
Com | Nav | Svcs | Stats | Notes

City of Fort Worth
 
Area around F41 (Ennis Municipal Airport)
 
Road maps at: MapQuest Bing Google
 
Aerial photo
WARNING: Photo may not be current or correct
Aerial photo of F41 (Ennis Municipal Airport)
Photo by Paul Reinders
Photo taken 07-Jan-2007

Do you have a better or more recent aerial photo of Ennis Municipal Airport that you would like to share? If so, please send us your photo.

 
Sectional chart

 
Airport distance calculator
Flying to Ennis Municipal Airport? Find the distance to fly.

From to F41

Sunrise and sunset
Times for 08-Dec-2022
 Local
(UTC-6)
 Zulu
(UTC)
Morning civil twilight06:5012:50
Sunrise07:1713:17
Sunset17:2023:20
Evening civil twilight17:4723:47

Current date and time
Zulu (UTC)  08-Dec-2022 11:20:22
Local (UTC-6)  08-Dec-2022 05:20:22
 
METAR
KJWY 
15nm NW 
081055Z AUTO 22007KT 7SM OVC011 21/20 A3015 RMK AO2 T02120195
KLNC 
15nm N 
081055Z AUTO 21004KT 10SM OVC014 21/19 A3015 RMK AO2 T02100191
KCRS 
22nm SE 
081053Z AUTO 19008KT 10SM OVC012 22/19 A3016 RMK AO2 SLP206 T02170194
KRBD 
24nm NW 
081053Z AUTO 22006KT 10SM OVC015 21/19 A3013 RMK AO2 SLP195 T02110194
KHQZ 
26nm N 
081055Z AUTO 21008KT 10SM OVC011 21/20 A3014 RMK AO1 T02090199
KINJ 
26nm SW 
081055Z AUTO 20009KT 10SM OVC008 21/21 A3014 RMK AO2 T02130213
TAF
KGKY 
30nm NW 
080856Z 0809/0906 VRB03KT 2SM BR SCT002 OVC050 TEMPO 0812/0814 VRB05KT P6SM NSW OVC015 FM081400 18006KT P6SM OVC015 FM081800 19008KT P6SM VCSH OVC030 FM090000 VRB05KT P6SM VCSH SCT030 BKN040
KDAL 
33nm N 
080850Z 0809/0906 00000KT 2SM BR OVC003 TEMPO 0812/0815 VRB05KT 5SM BR OVC008 FM081500 VRB05KT 5SM BR OVC010 FM081800 21007KT P6SM VCSH BKN015 FM090000 VRB06KT P6SM VCSH SCT030 BKN045 FM090500 VRB06KT P6SM VCSH BKN040
NOTAMs
Click for the latest NOTAMs
NOTAMs are issued by the DoD/FAA and will open in a separate window not controlled by AirNav.

 

 
 

FBO, Fuel Providers, and Aircraft Ground Support

  
 Business Name 
 
 Contact 
 
 Services / Description 
 
Fuel Prices
 
Comments
  
Hammock Aviation Services 972-875-4279
no information available

If you are affiliated with Hammock Aviation Services and would like to show here your services, contact info, web link, logo, and more, click here
100LL Jet A
SS $5.25 $4.80 
 Updated 15-Sep-2022
 
   write
SS=Self service
Update Fuel Prices
 

Would you like to see your business listed on this page?

 If your business provides an interesting product or service to pilots, flight crews, aircraft, or users of the Ennis Municipal Airport, you should consider listing it here.  To start the listing process, click on the button below
 
Add a business
 

Other Pages about Ennis Municipal Airport

www.ennis-texas.com/...
 
Update a link
 
Copyright © AirNav, LLC. All rights reserved. Privacy Policy  Contact